Time;durP1;ratioP1;P1;durP2;ratioP2;P2;SDS_P1;SDS_P2;PMS_P1;PMS_P2;Temp;Humidity;BMP_temperature;BMP_pressure;BME280_temperature;BME280_humidity;BME280_pressure;Samples;Min_cycle;Max_cycle;Signal;HPM_P1;HPM_P2
2021/07/24 00:00:29;;;;;;;12.90;11.50;;;;;;;17.16;70.53;101207.94;5060391;28;20227;-69
2021/07/24 00:02:54;;;;;;;15.97;13.20;;;;;;;17.04;71.28;101210.72;5060463;28;20173;-70
2021/07/24 00:05:20;;;;;;;14.00;12.50;;;;;;;17.06;70.97;101216.84;5060607;28;20186;-70
2021/07/24 00:07:45;;;;;;;15.83;12.23;;;;;;;16.87;71.92;101215.22;5059373;28;20174;-70
2021/07/24 00:10:11;;;;;;;13.60;12.13;;;;;;;17.02;71.27;101216.88;5060276;28;20535;-70
2021/07/24 00:12:36;;;;;;;13.00;11.43;;;;;;;17.02;71.58;101211.59;5060620;28;20181;-70
2021/07/24 00:15:01;;;;;;;15.60;13.53;;;;;;;17.13;70.97;101205.34;5060160;28;20515;-70
2021/07/24 00:17:27;;;;;;;15.07;12.77;;;;;;;17.05;71.14;101207.19;5060098;28;20192;-69
2021/07/24 00:19:52;;;;;;;15.50;12.93;;;;;;;16.88;71.79;101204.66;5060570;28;20169;-69
2021/07/24 00:22:17;;;;;;;12.00;10.80;;;;;;;16.53;73.18;101208.47;5060115;28;20681;-69
2021/07/24 00:24:43;;;;;;;14.87;12.70;;;;;;;16.57;73.12;101210.19;5059944;28;20225;-69
2021/07/24 00:27:08;;;;;;;13.60;12.20;;;;;;;16.49;73.00;101207.63;5059862;28;20170;-69
2021/07/24 00:29:34;;;;;;;13.63;12.23;;;;;;;15.87;75.68;101214.13;5060061;28;20489;-70
2021/07/24 00:32:00;;;;;;;15.83;12.20;;;;;;;16.69;72.74;101209.22;5059858;28;20659;-69
2021/07/24 00:34:25;;;;;;;17.10;13.10;;;;;;;16.24;74.60;101199.03;5060092;28;20248;-69
2021/07/24 00:36:50;;;;;;;12.73;11.43;;;;;;;16.23;74.81;101213.06;5059727;28;20188;-69
2021/07/24 00:39:16;;;;;;;15.40;12.50;;;;;;;16.53;73.40;101203.19;5059632;28;20188;-70
2021/07/24 00:41:50;;;;;;;17.10;12.53;;;;;;;16.63;73.46;101209.28;5060148;28;20170;-70
2021/07/24 00:44:17;;;;;;;13.20;11.80;;;;;;;16.80;72.73;101204.72;5059373;28;20209;-69
2021/07/24 00:46:43;;;;;;;15.97;12.90;;;;;;;16.82;72.09;101202.13;5058777;28;20394;-69
2021/07/24 00:49:11;;;;;;;12.90;11.57;;;;;;;16.78;72.00;101208.28;5059390;28;20645;-70
2021/07/24 00:51:38;;;;;;;12.90;11.60;;;;;;;16.64;72.69;101208.38;5059436;28;20472;-68
2021/07/24 00:54:03;;;;;;;12.57;11.27;;;;;;;16.89;71.68;101203.81;5059731;28;20723;-69
2021/07/24 00:56:29;;;;;;;14.47;11.80;;;;;;;16.97;71.52;101206.41;5058721;28;20422;-69
2021/07/24 00:58:55;;;;;;;13.17;11.87;;;;;;;16.77;71.94;101209.16;5059484;28;20213;-70
2021/07/24 01:01:21;;;;;;;12.87;11.53;;;;;;;16.92;71.34;101200.28;5059855;28;20166;-70
2021/07/24 01:03:46;;;;;;;14.20;12.10;;;;;;;16.71;72.14;101202.19;5059012;28;20197;-70
2021/07/24 01:06:12;;;;;;;16.10;12.20;;;;;;;16.99;71.06;101200.22;5059326;28;20177;-70
2021/07/24 01:08:38;;;;;;;13.67;11.20;;;;;;;16.90;71.71;101207.31;5059634;28;20169;-70
2021/07/24 01:11:04;;;;;;;15.23;13.13;;;;;;;16.84;71.59;101203.84;5059631;28;20386;-70
2021/07/24 01:13:29;;;;;;;15.50;13.63;;;;;;;16.94;71.37;101194.13;5059056;28;20322;-70
2021/07/24 01:15:55;;;;;;;14.43;12.10;;;;;;;16.67;71.87;101198.72;5059681;28;20248;-70
2021/07/24 01:18:20;;;;;;;17.27;12.80;;;;;;;16.55;72.61;101196.19;5059033;28;20243;-70
2021/07/24 01:20:46;;;;;;;14.70;12.80;;;;;;;16.79;71.74;101192.47;5058895;28;20539;-70
2021/07/24 01:23:13;;;;;;;14.23;12.40;;;;;;;16.81;71.82;101193.31;5058746;28;20229;-69
2021/07/24 01:25:49;;;;;;;20.27;17.07;;;;;;;16.56;72.17;101202.31;5059066;28;20201;-69
2021/07/24 01:28:23;;;;;;;13.97;12.50;;;;;;;16.79;71.81;101204.75;5059206;28;20651;-69
2021/07/24 01:30:48;;;;;;;14.07;12.57;;;;;;;16.66;72.12;101211.91;5058818;28;20636;-69
2021/07/24 01:33:13;;;;;;;14.70;12.90;;;;;;;16.47;72.40;101198.88;5058773;28;20398;-69
2021/07/24 01:35:47;;;;;;;14.97;13.23;;;;;;;16.58;72.47;101195.28;5059215;28;20182;-70
2021/07/24 01:38:13;;;;;;;16.93;12.40;;;;;;;16.54;72.43;101196.19;5058657;28;20216;-69
2021/07/24 01:40:39;;;;;;;14.53;12.97;;;;;;;16.76;71.58;101200.38;5058619;28;20424;-70
2021/07/24 01:43:04;;;;;;;17.43;12.50;;;;;;;16.68;72.07;101202.22;5058713;28;20420;-70
2021/07/24 01:45:31;;;;;;;14.70;13.27;;;;;;;16.57;72.45;101194.41;5058483;28;20205;-70
2021/07/24 02:05:07;;;;;;;15.47;13.67;;;;;;;16.34;72.90;101186.69;5058170;28;20513;-69
2021/07/24 02:07:36;;;;;;;15.73;12.83;;;;;;;16.39;73.01;101184.03;5057793;28;20842;-70
2021/07/24 02:10:03;;;;;;;14.90;13.33;;;;;;;16.46;72.31;101183.94;5058095;28;20499;-69
2021/07/24 02:12:28;;;;;;;15.03;12.97;;;;;;;16.37;72.21;101181.38;5057960;28;20503;-69
2021/07/24 02:14:54;;;;;;;14.87;13.00;;;;;;;16.33;72.96;101171.78;5058668;28;20738;-69
2021/07/24 02:17:19;;;;;;;14.63;13.10;;;;;;;16.28;73.00;101163.06;5058031;28;20204;-70
2021/07/24 02:19:44;;;;;;;16.07;13.40;;;;;;;16.03;73.92;101160.56;5057928;28;20184;-70
2021/07/24 02:22:10;;;;;;;17.30;13.90;;;;;;;16.15;73.32;101164.88;5058493;28;20234;-69
2021/07/24 02:24:35;;;;;;;13.97;12.47;;;;;;;16.26;72.97;101159.56;5057926;28;20216;-70
2021/07/24 02:27:06;;;;;;;15.40;13.53;;;;;;;15.73;74.89;101157.22;5057831;28;20185;-70
2021/07/24 02:29:32;;;;;;;12.93;11.63;;;;;;;16.16;73.03;101156.97;5057787;28;20248;-70
2021/07/24 02:31:57;;;;;;;14.37;12.83;;;;;;;15.91;74.99;101152.75;5057255;28;20561;-69
2021/07/24 02:34:23;;;;;;;15.00;12.60;;;;;;;15.92;74.58;101149.25;5058134;28;20177;-68
2021/07/24 02:36:48;;;;;;;13.07;11.53;;;;;;;15.75;75.19;101144.94;5057673;28;20170;-69
2021/07/24 02:39:13;;;;;;;14.07;12.57;;;;;;;15.82;75.13;101141.41;5057725;28;20173;-70
2021/07/24 02:41:38;;;;;;;13.43;11.97;;;;;;;15.47;76.23;101134.56;5058168;28;20177;-70
2021/07/24 02:44:04;;;;;;;13.47;11.93;;;;;;;15.46;76.45;101140.69;5057469;28;20511;-70
2021/07/24 02:46:29;;;;;;;19.43;13.30;;;;;;;15.65;75.78;101143.22;5057820;28;20198;-71
2021/07/24 02:48:54;;;;;;;14.73;12.80;;;;;;;15.86;74.46;101126.50;5058183;28;20406;-70
2021/07/24 02:51:20;;;;;;;15.30;12.37;;;;;;;16.00;74.40;101127.28;5057464;28;20326;-70
2021/07/24 02:53:45;;;;;;;13.90;12.27;;;;;;;16.14;73.41;101126.31;5057429;28;20551;-70
2021/07/24 02:56:10;;;;;;;13.87;12.40;;;;;;;16.12;73.41;101122.84;5058032;28;20170;-70
2021/07/24 02:58:36;;;;;;;16.63;14.60;;;;;;;15.79;74.55;101123.00;5057474;28;20255;-70
2021/07/24 03:01:08;;;;;;;16.47;13.00;;;;;;;15.56;75.46;101127.50;5057359;28;20558;-69
2021/07/24 03:03:34;;;;;;;13.10;11.70;;;;;;;15.81;75.18;101118.63;5057668;28;20216;-69
2021/07/24 03:05:59;;;;;;;19.77;13.70;;;;;;;15.74;75.22;101110.78;5057531;28;20420;-69
2021/07/24 03:08:24;;;;;;;14.30;12.57;;;;;;;15.90;74.25;101103.69;5057516;28;20805;-69
2021/07/24 03:10:50;;;;;;;14.17;12.73;;;;;;;15.44;76.03;101108.28;5057674;28;20174;-69
2021/07/24 03:13:15;;;;;;;15.10;13.60;;;;;;;15.41;76.57;101104.81;5057296;28;20165;-69
2021/07/24 03:15:40;;;;;;;14.00;12.50;;;;;;;15.97;74.58;101100.16;5057392;28;20562;-69
2021/07/24 03:18:06;;;;;;;14.50;13.10;;;;;;;15.53;75.71;101093.38;5057791;28;20165;-69
2021/07/24 03:20:31;;;;;;;14.27;12.77;;;;;;;15.74;75.45;101087.13;5057278;28;20227;-69
2021/07/24 03:22:59;;;;;;;15.60;12.90;;;;;;;15.71;75.13;101082.75;5057132;28;20260;-69
2021/07/24 03:25:25;;;;;;;14.37;12.23;;;;;;;15.43;76.31;101084.66;5057730;28;20230;-70
2021/07/24 03:27:50;;;;;;;17.70;13.07;;;;;;;15.60;75.59;101084.56;5057271;28;20422;-70
2021/07/24 03:30:15;;;;;;;13.87;12.40;;;;;;;15.79;75.41;101078.31;5057314;28;20174;-70
2021/07/24 03:32:41;;;;;;;13.83;12.40;;;;;;;15.28;76.90;101078.59;5057661;28;20201;-69
2021/07/24 03:35:06;;;;;;;14.40;12.83;;;;;;;15.32;76.50;101082.94;5057217;28;20181;-70
2021/07/24 03:37:31;;;;;;;13.17;11.70;;;;;;;15.46;75.59;101087.28;5057175;28;20170;-70
2021/07/24 03:39:57;;;;;;;13.37;11.77;;;;;;;15.55;75.58;101075.84;5057740;28;20254;-70
2021/07/24 03:42:22;;;;;;;14.40;12.30;;;;;;;15.61;75.79;101081.06;5057159;28;20231;-69
2021/07/24 03:44:47;;;;;;;12.53;11.23;;;;;;;15.55;75.81;101089.84;5060312;28;20233;-69
2021/07/24 03:47:13;;;;;;;13.70;12.30;;;;;;;15.59;75.73;101085.47;5061333;28;20177;-70
2021/07/24 03:49:38;;;;;;;14.40;11.70;;;;;;;15.73;74.56;101086.22;5060759;28;20239;-70
2021/07/24 03:52:04;;;;;;;14.50;11.93;;;;;;;15.56;75.27;101095.97;5060597;28;20216;-70
2021/07/24 03:54:29;;;;;;;13.10;11.90;;;;;;;15.40;75.96;101088.19;5060786;28;20209;-70
2021/07/24 03:56:54;;;;;;;14.30;12.80;;;;;;;15.66;75.70;101087.16;5060654;28;20471;-70
2021/07/24 03:59:20;;;;;;;13.07;11.77;;;;;;;15.57;75.54;101087.22;5060653;28;20455;-70
2021/07/24 04:01:46;;;;;;;11.43;10.23;;;;;;;15.72;74.88;101084.50;5060861;28;20227;-70
2021/07/24 04:04:13;;;;;;;13.93;11.03;;;;;;;15.60;75.16;101081.94;5060160;28;20197;-70
2021/07/24 04:06:38;;;;;;;12.40;11.20;;;;;;;15.97;73.81;101082.59;5060768;28;20799;-69
2021/07/24 04:09:05;;;;;;;13.00;11.70;;;;;;;16.62;71.39;101083.81;5060856;28;20404;-69
2021/07/24 04:11:30;;;;;;;11.13;10.03;;;;;;;16.86;69.89;101081.81;5060252;28;20173;-69
2021/07/24 04:13:57;;;;;;;11.47;9.90;;;;;;;17.05;69.08;101075.50;5060094;28;20422;-68
2021/07/24 04:16:22;;;;;;;11.57;10.40;;;;;;;16.88;69.68;101080.03;5060660;28;20486;-69
2021/07/24 04:18:47;;;;;;;10.70;9.60;;;;;;;17.70;66.74;101074.63;5060315;28;20428;-69
2021/07/24 04:21:13;;;;;;;10.80;9.43;;;;;;;18.09;64.65;101072.31;5059464;28;20177;-69
2021/07/24 04:23:39;;;;;;;9.03;8.13;;;;;;;18.12;63.96;101063.47;5059749;28;20469;-69
2021/07/24 04:26:04;;;;;;;10.30;8.43;;;;;;;18.34;63.33;101069.25;5060199;28;20174;-69
2021/07/24 04:28:30;;;;;;;10.07;9.17;;;;;;;18.66;62.08;101065.16;5060176;28;20494;-70
2021/07/24 04:30:55;;;;;;;10.60;9.50;;;;;;;19.05;60.55;101067.97;5059932;28;20173;-70
2021/07/24 04:33:20;;;;;;;10.40;9.40;;;;;;;19.95;58.27;101058.06;5059684;28;20256;-70
2021/07/24 04:35:47;;;;;;;9.50;8.63;;;;;;;19.25;59.53;101077.25;5060221;28;20493;-70
2021/07/24 04:38:13;;;;;;;10.23;9.03;;;;;;;18.85;61.46;101061.25;5059769;28;20223;-69
2021/07/24 04:40:38;;;;;;;8.57;7.77;;;;;;;18.95;61.03;101066.41;5058926;28;20615;-69
2021/07/24 04:43:04;;;;;;;9.43;8.53;;;;;;;20.19;56.56;101054.81;5059877;28;20408;-70
2021/07/24 04:45:29;;;;;;;8.13;7.43;;;;;;;19.84;58.27;101061.81;5058736;28;20205;-70
2021/07/24 04:47:54;;;;;;;8.40;7.63;;;;;;;21.01;54.80;101051.75;5059647;28;20451;-71
2021/07/24 04:50:20;;;;;;;9.03;8.13;;;;;;;20.15;57.20;101062.88;5059965;28;20193;-70
2021/07/24 04:52:45;;;;;;;9.17;8.10;;;;;;;20.47;56.48;101062.03;5059408;28;20264;-70
2021/07/24 04:55:11;;;;;;;8.10;7.43;;;;;;;21.32;54.14;101061.44;5059295;28;20173;-70
2021/07/24 04:57:37;;;;;;;8.60;7.70;;;;;;;21.29;53.50;101067.72;5059077;28;20166;-70
2021/07/24 05:00:04;;;;;;;8.97;8.07;;;;;;;21.80;52.04;101073.31;5059495;28;20801;-70
2021/07/24 05:02:29;;;;;;;8.10;7.27;;;;;;;23.12;49.05;101077.63;5058455;28;20181;-70
2021/07/24 05:04:56;;;;;;;7.97;7.27;;;;;;;20.30;56.27;101082.78;5059720;28;20535;-70
2021/07/24 05:07:22;;;;;;;7.93;7.27;;;;;;;20.51;56.08;101082.25;5059237;28;20551;-68
2021/07/24 05:09:47;;;;;;;7.47;6.77;;;;;;;22.77;50.60;101086.00;5059486;28;20510;-69
2021/07/24 05:12:12;;;;;;;7.60;6.73;;;;;;;22.95;50.49;101091.53;5059558;28;20212;-68
2021/07/24 05:14:38;;;;;;;7.43;6.73;;;;;;;23.00;49.73;101101.09;5058964;28;20422;-67
2021/07/24 05:17:11;;;;;;;7.63;7.03;;;;;;;22.74;50.17;101103.81;5059161;28;20204;-68
2021/07/24 05:19:41;;;;;;;7.87;7.20;;;;;;;24.05;47.21;101101.56;5059555;28;20169;-68
2021/07/24 05:22:07;;;;;;;7.83;6.87;;;;;;;22.95;49.79;101111.03;5058677;28;20498;-69
2021/07/24 05:24:33;;;;;;;6.83;6.23;;;;;;;23.35;48.82;101106.94;5058633;28;20460;-68
2021/07/24 05:26:59;;;;;;;7.43;6.83;;;;;;;21.55;53.29;101110.31;5059148;28;20412;-67
2021/07/24 05:29:24;;;;;;;7.60;6.90;;;;;;;22.37;51.92;101105.97;5058743;28;20417;-67
2021/07/24 05:31:49;;;;;;;7.47;6.30;;;;;;;23.76;48.16;101097.38;5058745;28;20181;-67
2021/07/24 05:34:14;;;;;;;6.80;6.17;;;;;;;24.44;46.34;101095.50;5058891;28;20165;-68
2021/07/24 05:36:40;;;;;;;7.50;6.70;;;;;;;24.43;46.57;101098.22;5057563;28;20520;-68
2021/07/24 05:39:05;;;;;;;8.03;6.30;;;;;;;24.42;46.54;101093.81;5057987;28;20226;-68
2021/07/24 05:41:30;;;;;;;6.80;6.30;;;;;;;23.53;48.45;101097.38;5058165;28;20181;-68
2021/07/24 05:43:56;;;;;;;6.80;6.20;;;;;;;23.75;48.77;101085.88;5058130;28;20288;-68
2021/07/24 05:46:21;;;;;;;7.27;6.57;;;;;;;24.06;47.36;101082.00;5058179;28;20259;-68
2021/07/24 05:48:46;;;;;;;7.43;6.83;;;;;;;21.56;54.70;101085.53;5058879;28;20420;-67
2021/07/24 05:51:11;;;;;;;7.40;6.60;;;;;;;22.51;52.55;101084.25;5058253;28;20200;-67
2021/07/24 05:53:37;;;;;;;8.80;7.10;;;;;;;24.54;46.16;101079.97;5058195;28;20165;-67
2021/07/24 05:56:02;;;;;;;6.80;6.20;;;;;;;22.93;51.08;101075.63;5058521;28;20201;-68
2021/07/24 05:58:28;;;;;;;6.70;6.10;;;;;;;24.11;48.21;101066.69;5058346;28;20206;-67
2021/07/24 06:00:53;;;;;;;8.57;7.23;;;;;;;22.03;53.27;101076.06;5058352;28;20193;-67
2021/07/24 06:03:19;;;;;;;7.77;7.17;;;;;;;21.70;55.15;101072.69;5058376;28;20172;-68
2021/07/24 06:05:44;;;;;;;7.30;6.60;;;;;;;23.31;51.14;101073.38;5057168;28;20211;-69
2021/07/24 06:08:09;;;;;;;8.50;7.60;;;;;;;23.26;50.50;101070.03;5058032;28;20166;-67
2021/07/24 06:10:35;;;;;;;7.50;6.90;;;;;;;23.29;50.86;101074.38;5058395;28;20162;-68
2021/07/24 06:13:00;;;;;;;8.90;7.40;;;;;;;25.21;46.61;101068.09;5057769;28;20198;-68
2021/07/24 06:15:25;;;;;;;7.50;6.80;;;;;;;25.14;45.81;101066.66;5058129;28;20181;-68
2021/07/24 06:17:50;;;;;;;7.53;6.93;;;;;;;23.08;51.19;101079.53;5058249;28;20194;-69
2021/07/24 06:20:16;;;;;;;7.80;7.10;;;;;;;24.30;48.38;101058.78;5057912;28;20423;-70
2021/07/24 06:22:41;;;;;;;7.40;6.70;;;;;;;25.26;46.44;101067.00;5057614;28;20240;-67
2021/07/24 06:25:07;;;;;;;7.27;6.67;;;;;;;27.21;40.99;101056.28;5058265;28;20240;-66
2021/07/24 06:27:34;;;;;;;7.20;6.50;;;;;;;23.68;48.36;101061.28;5057687;28;20201;-66
2021/07/24 06:30:00;;;;;;;8.20;6.93;;;;;;;23.76;49.30;101062.75;5057605;28;20814;-67
2021/07/24 06:32:25;;;;;;;7.97;6.57;;;;;;;24.30;47.99;101048.13;5057787;28;20416;-67
2021/07/24 06:34:50;;;;;;;8.00;7.20;;;;;;;27.23;41.40;101032.97;5057558;28;20437;-67
2021/07/24 06:37:16;;;;;;;6.90;6.30;;;;;;;28.38;38.94;101016.53;5057604;28;20201;-68
2021/07/24 06:39:41;;;;;;;6.83;6.20;;;;;;;25.13;45.05;101027.56;5057838;28;20176;-68
2021/07/24 06:42:06;;;;;;;7.27;6.57;;;;;;;24.84;46.06;101031.56;5057579;28;20464;-68
2021/07/24 06:44:32;;;;;;;8.40;6.20;;;;;;;26.56;42.28;101024.97;5056627;28;20205;-68
2021/07/24 06:46:57;;;;;;;6.83;6.23;;;;;;;23.84;47.33;101026.03;5057877;28;20455;-67
2021/07/24 06:49:22;;;;;;;8.20;5.97;;;;;;;24.94;44.59;101014.22;5057566;28;20223;-66
2021/07/24 06:51:48;;;;;;;6.77;5.97;;;;;;;24.09;46.64;101020.59;5057498;28;20276;-67
2021/07/24 06:54:13;;;;;;;6.50;5.90;;;;;;;24.30;46.55;101007.28;5057656;28;20402;-67
2021/07/24 06:56:38;;;;;;;6.70;6.10;;;;;;;24.79;45.50;101005.13;5057457;28;20205;-67
2021/07/24 06:59:04;;;;;;;6.90;6.10;;;;;;;27.17;40.78;100998.53;5057461;28;20185;-67
2021/07/24 07:01:29;;;;;;;6.60;6.00;;;;;;;24.52;45.86;101005.41;5057722;28;20173;-67
2021/07/24 07:03:54;;;;;;;6.53;5.87;;;;;;;25.68;43.34;100993.81;5057265;28;20197;-68
2021/07/24 07:06:20;;;;;;;7.00;5.50;;;;;;;26.36;41.33;101001.97;5057182;28;20224;-68
2021/07/24 07:08:45;;;;;;;6.60;6.00;;;;;;;25.75;42.39;100995.28;5057836;28;20181;-67
2021/07/24 07:11:10;;;;;;;5.97;5.47;;;;;;;24.90;44.45;100993.97;5057315;28;20227;-68
2021/07/24 07:13:36;;;;;;;6.07;5.40;;;;;;;24.32;45.61;101000.94;5057121;28;20173;-67
2021/07/24 07:16:05;;;;;;;7.00;6.30;;;;;;;26.12;41.85;100995.22;5057402;28;20172;-67
2021/07/24 07:18:31;;;;;;;7.27;6.00;;;;;;;26.38;41.67;100988.50;5060396;28;20166;-67
2021/07/24 07:20:56;;;;;;;6.50;5.90;;;;;;;26.78;40.80;100985.53;5061045;28;20408;-67
2021/07/24 07:23:21;;;;;;;5.63;5.10;;;;;;;28.47;37.33;100979.38;5061026;28;20303;-67
2021/07/24 07:25:47;;;;;;;5.87;5.37;;;;;;;28.55;36.81;100972.59;5060836;28;20212;-67
2021/07/24 07:28:12;;;;;;;5.77;5.27;;;;;;;28.15;37.96;100975.03;5060982;28;20478;-68
2021/07/24 07:30:37;;;;;;;6.27;5.67;;;;;;;29.03;35.40;100974.09;5060951;28;20243;-68
2021/07/24 07:33:03;;;;;;;7.53;6.00;;;;;;;25.05;43.73;100981.72;5060807;28;20188;-67
2021/07/24 07:35:28;;;;;;;6.13;5.43;;;;;;;27.04;39.47;100971.56;5061098;28;20459;-67
2021/07/24 07:37:54;;;;;;;6.10;5.50;;;;;;;25.43;43.12;100973.69;5060843;28;20177;-68
2021/07/24 07:40:23;;;;;;;5.90;5.20;;;;;;;26.66;39.54;100971.84;5060860;28;20550;-67
2021/07/24 07:42:48;;;;;;;6.67;5.80;;;;;;;27.84;38.51;100965.28;5060881;28;20440;-68
2021/07/24 07:45:13;;;;;;;6.00;5.40;;;;;;;29.43;35.26;100962.59;5060486;28;20557;-67
2021/07/24 07:47:39;;;;;;;7.80;5.40;;;;;;;29.37;35.53;100959.34;5060485;28;20223;-67
2021/07/24 07:50:05;;;;;;;5.40;4.90;;;;;;;27.92;36.71;100965.69;5060672;28;20426;-67
2021/07/24 07:52:31;;;;;;;6.77;5.17;;;;;;;30.16;33.51;100954.06;5060237;28;20257;-68
2021/07/24 07:54:57;;;;;;;5.77;5.13;;;;;;;29.37;33.98;100956.66;5060494;28;20416;-68
2021/07/24 07:57:24;;;;;;;6.03;5.43;;;;;;;27.36;38.45;100957.31;5060629;28;20412;-66
2021/07/24 07:59:50;;;;;;;5.77;5.13;;;;;;;31.05;32.16;100937.94;5060648;28;20173;-67
2021/07/24 08:02:15;;;;;;;5.90;5.50;;;;;;;32.28;29.56;100929.56;5060238;28;20416;-67
2021/07/24 08:04:40;;;;;;;5.40;4.80;;;;;;;30.56;31.67;100939.66;5060408;28;20196;-67
2021/07/24 08:07:06;;;;;;;7.73;5.63;;;;;;;28.68;35.10;100945.03;5060179;28;20475;-68
2021/07/24 08:09:31;;;;;;;9.10;5.30;;;;;;;27.77;36.40;100948.72;5060193;28;20205;-68
2021/07/24 08:11:56;;;;;;;6.63;5.13;;;;;;;26.63;38.78;100947.09;5060497;28;20177;-68
2021/07/24 08:14:21;;;;;;;5.70;5.20;;;;;;;29.96;32.95;100927.69;5059909;28;20433;-68
2021/07/24 08:16:47;;;;;;;7.03;5.30;;;;;;;27.31;38.25;100927.28;5060051;28;20174;-67
2021/07/24 08:19:12;;;;;;;5.67;5.20;;;;;;;29.81;33.44;100917.03;5060471;28;20197;-67
2021/07/24 08:21:37;;;;;;;5.80;4.90;;;;;;;28.20;35.79;100926.53;5060095;28;20188;-67
2021/07/24 08:24:03;;;;;;;5.23;4.80;;;;;;;28.61;34.69;100914.16;5059699;28;20233;-67
2021/07/24 08:26:28;;;;;;;5.23;4.83;;;;;;;30.15;33.31;100912.03;5060221;28;20303;-67
2021/07/24 08:28:53;;;;;;;7.97;4.80;;;;;;;31.10;31.69;100906.16;5059144;28;20548;-67
2021/07/24 08:31:19;;;;;;;5.27;4.77;;;;;;;31.07;30.75;100906.38;5059708;28;20181;-68
2021/07/24 08:33:44;;;;;;;5.80;5.30;;;;;;;29.31;32.05;100899.81;5059928;28;20170;-67
2021/07/24 08:36:10;;;;;;;5.87;5.07;;;;;;;29.05;34.06;100897.88;5059629;28;20180;-68
2021/07/24 08:38:35;;;;;;;5.47;5.07;;;;;;;26.99;33.36;100906.75;5059597;28;20245;-67
2021/07/24 08:41:01;;;;;;;6.17;5.33;;;;;;;27.75;35.40;100894.34;5059997;28;20595;-67
2021/07/24 08:43:26;;;;;;;6.50;5.30;;;;;;;29.20;33.71;100897.81;5059167;28;20546;-67
2021/07/24 08:45:51;;;;;;;5.57;5.07;;;;;;;29.11;33.45;100896.63;5058466;28;20587;-66
2021/07/24 08:48:18;;;;;;;5.63;5.13;;;;;;;28.76;34.20;100896.25;5060037;28;20182;-67
2021/07/24 08:50:44;;;;;;;5.53;5.03;;;;;;;28.10;35.66;100891.38;5058458;28;20556;-67
2021/07/24 08:53:09;;;;;;;5.80;5.23;;;;;;;30.15;32.61;100887.81;5059091;28;20424;-67
2021/07/24 08:55:37;;;;;;;5.10;4.60;;;;;;;29.27;33.77;100891.13;5058947;28;20681;-66
2021/07/24 08:58:02;;;;;;;5.40;4.90;;;;;;;27.87;36.10;100899.00;5059057;28;20174;-67
2021/07/24 09:00:28;;;;;;;5.77;5.37;;;;;;;26.71;38.50;100912.78;5059056;28;20847;-66
2021/07/24 09:02:59;;;;;;;8.87;5.30;;;;;;;28.91;34.33;100900.59;5059338;28;20244;-66
2021/07/24 09:05:24;;;;;;;5.77;5.17;;;;;;;27.86;35.88;100902.63;5059105;28;20513;-66
2021/07/24 09:07:50;;;;;;;6.30;5.70;;;;;;;31.34;31.06;100881.91;5059209;28;20411;-66
2021/07/24 09:10:17;;;;;;;5.10;4.70;;;;;;;30.16;32.16;100891.34;5059328;28;20185;-67
2021/07/24 09:12:44;;;;;;;6.40;5.30;;;;;;;29.98;32.83;100886.31;5058882;28;20676;-67
2021/07/24 09:15:11;;;;;;;5.60;5.10;;;;;;;26.82;37.90;100896.13;5058794;28;20656;-67
2021/07/24 09:17:37;;;;;;;5.77;5.27;;;;;;;27.82;35.79;100885.00;5059347;28;20655;-68
2021/07/24 09:20:03;;;;;;;6.50;5.40;;;;;;;29.24;32.95;100878.72;5058609;28;20495;-68
2021/07/24 09:22:39;;;;;;;6.10;5.50;;;;;;;31.19;30.15;100878.53;5058679;28;20629;-67
2021/07/24 09:25:08;;;;;;;5.30;4.80;;;;;;;29.77;32.23;100885.97;5058706;28;20512;-67
2021/07/24 09:27:35;;;;;;;6.20;4.63;;;;;;;28.45;33.78;100890.97;5058719;28;20413;-67
2021/07/24 09:30:01;;;;;;;5.87;5.27;;;;;;;27.90;34.64;100881.84;5059130;28;20474;-67
2021/07/24 09:32:30;;;;;;;5.80;5.30;;;;;;;30.89;30.42;100874.44;5057769;28;20420;-67
2021/07/24 09:34:55;;;;;;;5.40;5.00;;;;;;;31.06;29.99;100867.81;5058465;28;20423;-68
2021/07/24 09:37:28;;;;;;;6.13;5.53;;;;;;;30.22;31.03;100875.66;5059030;28;20737;-67
2021/07/24 09:39:57;;;;;;;7.70;5.60;;;;;;;29.87;31.46;100878.16;5058230;28;20208;-67
2021/07/24 09:42:32;;;;;;;5.70;5.20;;;;;;;33.05;26.78;100863.94;5057896;28;20420;-67
2021/07/24 09:45:07;;;;;;;6.50;5.30;;;;;;;28.78;32.70;100875.53;5058320;28;20490;-67
2021/07/24 09:47:32;;;;;;;5.87;5.07;;;;;;;31.29;29.42;100856.28;5058371;28;20684;-67
2021/07/24 09:50:14;;;;;;;5.50;5.00;;;;;;;28.36;34.42;100862.94;5058111;28;20435;-67
2021/07/24 09:52:52;;;;;;;5.50;5.00;;;;;;;32.12;28.61;100847.13;5058013;28;20174;-67
2021/07/24 09:55:22;;;;;;;5.17;4.77;;;;;;;31.07;29.70;100852.53;5057351;28;20432;-67
2021/07/24 09:57:49;;;;;;;5.63;5.13;;;;;;;32.77;27.16;100855.44;5057871;28;20420;-67
2021/07/24 10:00:21;;;;;;;5.90;5.40;;;;;;;32.33;27.28;100857.22;5057327;28;20688;-67
2021/07/24 10:02:47;;;;;;;7.40;4.97;;;;;;;27.79;33.37;100879.81;5057870;28;20416;-67
2021/07/24 10:05:13;;;;;;;5.53;5.13;;;;;;;27.36;34.75;100877.00;5057522;28;20499;-67
2021/07/24 10:07:42;;;;;;;6.60;5.23;;;;;;;30.30;30.22;100856.28;5057992;28;20238;-67
2021/07/24 10:10:07;;;;;;;5.77;5.10;;;;;;;29.60;31.66;100876.38;5057236;28;20504;-68
2021/07/24 10:12:34;;;;;;;6.67;5.07;;;;;;;29.21;32.07;100875.38;5057381;28;20873;-68
2021/07/24 10:14:59;;;;;;;5.33;4.77;;;;;;;30.91;29.93;100869.78;5057719;28;20527;-68
2021/07/24 10:17:25;;;;;;;5.60;5.20;;;;;;;30.24;30.29;100873.72;5057829;28;20430;-67
2021/07/24 10:19:51;;;;;;;5.20;4.80;;;;;;;30.82;30.24;100858.84;5057575;28;20422;-68
2021/07/24 10:22:18;;;;;;;5.40;4.90;;;;;;;27.16;34.98;100873.69;5057511;28;20233;-67
2021/07/24 10:24:43;;;;;;;5.83;5.23;;;;;;;27.65;35.13;100861.06;5057450;28;20559;-68
2021/07/24 10:27:18;;;;;;;5.70;5.20;;;;;;;29.54;31.50;100861.53;5058005;28;20503;-68
2021/07/24 10:30:03;;;;;;;5.50;5.00;;;;;;;28.22;34.41;100866.47;5056933;28;20195;-70
2021/07/24 10:32:30;;;;;;;8.03;5.40;;;;;;;30.67;29.76;100850.94;5056779;28;20420;-68
2021/07/24 10:34:55;;;;;;;5.33;4.70;;;;;;;31.01;29.79;100858.34;5057534;28;20812;-68
2021/07/24 10:37:31;;;;;;;5.47;5.07;;;;;;;32.36;27.35;100854.28;5056781;28;20430;-69
2021/07/24 10:40:15;;;;;;;5.50;5.10;;;;;;;33.05;26.33;100851.28;5056819;28;20257;-67
2021/07/24 10:42:40;;;;;;;5.50;4.93;;;;;;;31.36;28.39;100862.91;5057238;28;20424;-68
2021/07/24 10:45:31;;;;;;;5.93;5.33;;;;;;;30.33;30.06;100852.50;5057325;28;20768;-68
2021/07/24 10:48:22;;;;;;;5.40;4.90;;;;;;;31.62;28.24;100847.44;5057513;28;20204;-69
2021/07/24 10:51:07;;;;;;;7.70;5.23;;;;;;;30.64;29.35;100851.16;5057539;28;20464;-67
2021/07/24 10:54:03;;;;;;;5.57;5.17;;;;;;;31.07;28.77;100839.91;5056795;28;20420;-68
2021/07/24 10:56:39;;;;;;;5.50;5.10;;;;;;;29.98;31.16;100842.44;5061466;28;20648;-67
2021/07/24 10:59:13;;;;;;;5.73;5.20;;;;;;;29.34;31.55;100846.78;5061465;28;20522;-67
2021/07/24 11:01:47;;;;;;;5.77;5.27;;;;;;;29.38;32.33;100844.75;5061483;28;20419;-68
2021/07/24 11:04:43;;;;;;;8.33;6.57;;;;;;;29.28;32.09;100830.22;5061250;28;20544;-68
2021/07/24 11:07:26;;;;;;;5.83;5.23;;;;;;;31.40;28.79;100822.13;5061481;28;20510;-66
2021/07/24 11:09:51;;;;;;;6.00;5.43;;;;;;;32.85;26.47;100811.59;5061531;28;20443;-67
2021/07/24 11:12:17;;;;;;;6.47;5.87;;;;;;;31.01;29.41;100813.44;5061244;28;20450;-67
2021/07/24 11:14:49;;;;;;;6.27;5.77;;;;;;;29.67;30.85;100823.06;5060573;28;20173;-67
2021/07/24 11:17:15;;;;;;;6.33;5.70;;;;;;;29.84;31.17;100808.47;5061558;28;20181;-67
2021/07/24 11:19:43;;;;;;;6.33;5.73;;;;;;;30.47;29.46;100806.69;5060606;28;20420;-67
2021/07/24 11:22:24;;;;;;;5.90;5.40;;;;;;;28.85;32.02;100810.63;5060968;28;20484;-67
2021/07/24 11:24:49;;;;;;;6.27;5.77;;;;;;;28.39;33.73;100808.25;5060890;28;20518;-68
2021/07/24 11:27:15;;;;;;;7.93;6.30;;;;;;;27.70;34.34;100794.69;5061200;28;20452;-67
2021/07/24 11:29:40;;;;;;;7.03;6.30;;;;;;;28.72;33.31;100793.63;5061272;28;20524;-67
2021/07/24 11:32:06;;;;;;;7.70;7.00;;;;;;;28.63;33.29;100791.50;5060671;28;20169;-67
2021/07/24 11:34:33;;;;;;;7.90;7.20;;;;;;;30.39;30.67;100785.69;5060597;28;20547;-67